Time;durP1;ratioP1;P1;durP2;ratioP2;P2;SDS_P1;SDS_P2;PMS_P1;PMS_P2;Temp;Humidity;BMP_temperature;BMP_pressure;BME280_temperature;BME280_humidity;BME280_pressure;Samples;Min_cycle;Max_cycle;Signal;HPM_P1;HPM_P2
2022/05/21 00:02:03;;;;;;;3.78;1.80;;;;;;;11.74;68.63;95081.53;5043781;28;20232;-89
2022/05/21 00:04:30;;;;;;;5.25;2.17;;;;;;;11.82;68.61;95088.88;5052413;28;20231;-89
2022/05/21 00:06:58;;;;;;;2.97;1.33;;;;;;;11.75;68.90;95085.84;5035319;28;20208;-88
2022/05/21 00:09:27;;;;;;;2.28;1.58;;;;;;;11.68;69.35;95088.25;5030675;28;20209;-90
2022/05/21 00:11:54;;;;;;;1.80;1.20;;;;;;;11.68;69.22;95082.81;5033007;28;20237;-90
2022/05/21 00:14:21;;;;;;;2.65;1.40;;;;;;;11.61;69.60;95079.81;5031019;28;20252;-89
2022/05/21 00:16:48;;;;;;;2.08;1.45;;;;;;;11.57;69.82;95085.09;5033955;28;20209;-89
2022/05/21 00:19:15;;;;;;;3.55;1.60;;;;;;;11.54;69.36;95076.78;5030371;28;20233;-89
2022/05/21 00:21:42;;;;;;;2.53;1.45;;;;;;;11.53;69.04;95072.47;5030908;28;20216;-89
2022/05/21 00:24:10;;;;;;;7.32;1.45;;;;;;;11.55;68.67;95078.38;5042270;28;20204;-89
2022/05/21 00:26:37;;;;;;;7.13;1.85;;;;;;;11.50;68.58;95070.41;5050903;28;20235;-89
2022/05/21 00:29:04;;;;;;;3.67;1.52;;;;;;;11.45;68.85;95067.88;5053109;28;20200;-90
2022/05/21 00:31:31;;;;;;;3.42;1.60;;;;;;;11.47;69.42;95065.66;5051428;28;20196;-89
2022/05/21 00:33:58;;;;;;;4.35;1.83;;;;;;;11.48;69.62;95067.25;5049758;28;20228;-89
2022/05/21 00:36:25;;;;;;;2.10;1.40;;;;;;;11.42;70.04;95061.19;5048376;28;20192;-90
2022/05/21 00:38:52;;;;;;;3.83;1.30;;;;;;;11.34;70.41;95062.00;5051485;28;20228;-88
2022/05/21 00:41:23;;;;;;;5.50;1.40;;;;;;;11.33;70.18;95058.50;5051093;28;20254;-89
2022/05/21 00:43:51;;;;;;;5.40;1.42;;;;;;;11.31;70.32;95055.28;5050804;28;20679;-89
2022/05/21 00:46:21;;;;;;;2.92;1.35;;;;;;;11.34;70.26;95059.28;5050605;28;20236;-89
2022/05/21 00:48:54;;;;;;;5.20;1.50;;;;;;;11.22;70.50;95043.63;5051577;28;20208;-88
2022/05/21 00:51:25;;;;;;;8.23;1.63;;;;;;;11.17;70.38;95051.97;5044145;28;20193;-89
2022/05/21 00:53:57;;;;;;;2.85;1.33;;;;;;;11.14;68.84;95047.16;5042155;28;20200;-89
2022/05/21 00:56:28;;;;;;;3.42;1.45;;;;;;;11.04;69.38;95044.78;5042055;28;20239;-89
2022/05/21 01:01:46;;;;;;;2.70;1.40;;;;;;;10.98;68.87;95043.34;5049881;28;20223;-88
2022/05/21 01:04:13;;;;;;;1.98;1.08;;;;;;;10.87;69.06;95047.50;5048645;28;20192;-88
2022/05/21 01:06:40;;;;;;;4.90;1.58;;;;;;;10.91;70.20;95038.44;5050454;28;20209;-88
2022/05/21 01:09:07;;;;;;;2.03;1.20;;;;;;;10.92;70.02;95029.19;5050980;28;20272;-89
2022/05/21 01:11:37;;;;;;;5.13;1.60;;;;;;;10.99;69.35;95034.91;5049459;28;20201;-89
2022/05/21 01:14:05;;;;;;;7.13;1.23;;;;;;;11.03;68.88;95035.06;5050991;28;20216;-86
2022/05/21 01:16:33;;;;;;;1.75;0.90;;;;;;;10.94;67.36;95036.97;5052354;28;20206;-88
2022/05/21 01:19:00;;;;;;;3.53;1.30;;;;;;;10.83;68.07;95035.69;5053329;28;20216;-87
2022/05/21 01:21:27;;;;;;;2.33;1.30;;;;;;;10.81;67.53;95032.50;5046797;28;20200;-89
2022/05/21 01:23:55;;;;;;;5.68;1.30;;;;;;;10.77;67.01;95034.28;5048422;28;20212;-89
2022/05/21 01:26:23;;;;;;;1.55;0.90;;;;;;;10.63;66.86;95037.94;5048690;28;20243;-88
2022/05/21 01:28:51;;;;;;;2.70;1.35;;;;;;;10.59;67.17;95030.75;5052100;28;20196;-89
2022/05/21 01:31:18;;;;;;;6.82;1.58;;;;;;;10.48;68.20;95038.38;5053912;28;20224;-88
2022/05/21 01:33:46;;;;;;;3.30;1.15;;;;;;;10.10;69.71;95045.44;5050211;28;20208;-88
2022/05/21 01:36:14;;;;;;;3.00;1.42;;;;;;;9.92;71.33;95034.56;5047109;28;20207;-88
2022/05/21 01:38:43;;;;;;;3.55;1.30;;;;;;;10.04;71.94;95035.84;5049570;28;20228;-88
2022/05/21 01:41:11;;;;;;;3.38;1.50;;;;;;;10.21;71.62;95031.34;5049985;28;20200;-89
2022/05/21 01:46:24;;;;;;;4.45;2.08;;;;;;;10.34;71.37;95035.03;5059022;28;20395;-89
2022/05/21 01:48:51;;;;;;;1.95;1.17;;;;;;;10.30;70.85;95036.75;5051325;28;20205;-89
2022/05/21 01:51:19;;;;;;;3.53;1.25;;;;;;;10.29;69.44;95037.88;5049545;28;20329;-89
2022/05/21 01:53:45;;;;;;;1.17;1.02;;;;;;;10.33;69.56;95044.25;5050811;28;20355;-88
2022/05/21 01:56:15;;;;;;;1.33;1.13;;;;;;;10.34;68.31;95029.59;5051466;28;20204;-88
2022/05/21 01:58:44;;;;;;;3.08;1.10;;;;;;;10.23;69.66;95036.44;5050417;28;20311;-88
2022/05/21 02:01:11;;;;;;;3.05;1.50;;;;;;;10.29;69.87;95032.44;5049814;28;20231;-88
2022/05/21 02:03:39;;;;;;;1.33;0.88;;;;;;;10.31;69.47;95024.81;5049947;28;20211;-88
2022/05/21 02:06:06;;;;;;;1.63;1.10;;;;;;;10.13;70.04;95029.34;5046763;28;20204;-88
2022/05/21 02:08:34;;;;;;;6.10;1.15;;;;;;;9.89;71.11;95029.75;5046458;28;20189;-89
2022/05/21 02:11:01;;;;;;;1.80;0.95;;;;;;;9.85;71.50;95023.38;5031716;28;20197;-88
2022/05/21 02:13:32;;;;;;;3.10;1.50;;;;;;;9.91;71.99;95021.34;5034207;28;20432;-88
2022/05/21 02:15:59;;;;;;;1.45;1.10;;;;;;;9.97;72.06;95004.66;5035445;28;20200;-88
2022/05/21 02:18:27;;;;;;;2.38;1.40;;;;;;;9.90;72.70;95004.31;5034986;28;20220;-88
2022/05/21 02:20:55;;;;;;;3.13;1.30;;;;;;;9.83;72.94;95003.97;5035562;28;20232;-89
2022/05/21 02:23:22;;;;;;;1.67;1.30;;;;;;;9.68;73.11;94998.97;5035776;28;20228;-88
2022/05/21 02:25:49;;;;;;;2.45;1.30;;;;;;;9.65;73.74;94996.91;5035075;28;20220;-90
2022/05/21 02:28:17;;;;;;;2.22;1.33;;;;;;;9.57;74.12;95003.03;5049936;28;20184;-90
2022/05/21 02:30:45;;;;;;;4.00;1.42;;;;;;;9.56;74.53;94996.06;5053348;28;20216;-88
2022/05/21 02:33:13;;;;;;;2.20;1.35;;;;;;;9.42;74.94;95003.47;5053021;28;20207;-89
2022/05/21 02:35:40;;;;;;;2.08;1.30;;;;;;;9.52;74.94;94997.78;5043901;28;20208;-89
2022/05/21 02:40:52;;;;;;;1.73;1.23;;;;;;;9.61;74.93;95012.13;5047210;28;20223;-89
2022/05/21 02:43:19;;;;;;;2.92;1.10;;;;;;;9.41;74.70;95007.28;5044402;28;20709;-89
2022/05/21 02:45:47;;;;;;;1.30;1.13;;;;;;;9.45;74.66;95005.53;5049270;28;20228;-88
2022/05/21 02:48:14;;;;;;;3.13;1.48;;;;;;;9.57;74.20;95005.75;5046568;28;20203;-88
2022/05/21 02:50:42;;;;;;;2.47;1.40;;;;;;;9.54;74.55;95009.09;5050525;28;20208;-89
2022/05/21 02:53:15;;;;;;;9.32;1.98;;;;;;;9.62;74.51;95008.31;5049604;28;20219;-88
2022/05/21 02:55:42;;;;;;;1.55;1.20;;;;;;;9.70;74.62;95009.50;5047732;28;20231;-88
2022/05/21 02:58:09;;;;;;;2.50;1.10;;;;;;;9.81;74.03;95006.19;5048985;28;20228;-88
2022/05/21 03:00:36;;;;;;;2.15;1.40;;;;;;;9.91;73.97;95005.09;5048046;28;20236;-89
2022/05/21 03:03:04;;;;;;;2.15;1.27;;;;;;;9.84;74.19;95016.38;5044146;28;20659;-89
2022/05/21 03:05:31;;;;;;;2.42;1.35;;;;;;;9.90;73.41;95020.53;5029260;28;20664;-89
2022/05/21 03:08:00;;;;;;;1.35;1.08;;;;;;;9.88;73.11;95017.34;5024428;28;20296;-89
2022/05/21 03:10:29;;;;;;;1.92;1.10;;;;;;;10.36;72.46;95015.75;5039847;28;20686;-88
2022/05/21 03:12:57;;;;;;;2.78;1.63;;;;;;;11.23;70.34;95023.53;5042207;28;20208;-90
2022/05/21 03:15:29;;;;;;;2.33;1.50;;;;;;;12.17;66.72;95020.84;5021223;28;20204;-88
2022/05/21 03:17:56;;;;;;;4.03;1.50;;;;;;;13.40;63.11;95015.78;5034555;28;20221;-88
2022/05/21 03:20:24;;;;;;;2.55;1.42;;;;;;;14.55;59.65;95005.59;5033094;28;20625;-87
2022/05/21 03:22:51;;;;;;;5.43;1.50;;;;;;;15.21;56.89;95005.19;5031639;28;20211;-88
2022/05/21 03:25:19;;;;;;;5.18;1.88;;;;;;;15.63;54.65;95000.91;5018472;28;20220;-88
2022/05/21 03:27:46;;;;;;;2.05;1.30;;;;;;;16.59;53.55;94991.53;5031350;28;20200;-87
2022/05/21 03:30:16;;;;;;;2.25;1.27;;;;;;;17.27;50.22;94982.81;5027403;28;20367;-86
2022/05/21 03:32:43;;;;;;;7.05;1.42;;;;;;;17.66;50.39;94978.91;5023645;28;20211;-85
2022/05/21 03:35:11;;;;;;;4.20;1.50;;;;;;;17.20;50.79;94971.75;5018371;28;20286;-85
2022/05/21 03:37:40;;;;;;;3.85;1.70;;;;;;;18.20;49.29;94958.69;5030933;28;20231;-86
2022/05/21 03:40:09;;;;;;;2.20;1.60;;;;;;;17.99;49.08;94974.78;5031836;28;20335;-86
2022/05/21 03:42:37;;;;;;;3.28;2.17;;;;;;;19.37;45.50;94960.31;5031486;28;20200;-85
2022/05/21 03:45:05;;;;;;;3.35;2.08;;;;;;;19.68;44.67;94956.34;5018198;28;20745;-85
2022/05/21 03:47:33;;;;;;;4.80;1.67;;;;;;;20.36;43.00;94955.03;5030781;28;20196;-84
2022/05/21 03:50:00;;;;;;;4.00;2.05;;;;;;;20.81;42.22;94963.94;5031449;28;20208;-85
2022/05/21 03:52:27;;;;;;;2.83;1.80;;;;;;;20.90;41.28;94967.16;5017847;28;20205;-85
2022/05/21 03:54:56;;;;;;;4.78;1.80;;;;;;;21.95;40.14;94965.19;5023066;28;20208;-84
2022/05/21 03:57:22;;;;;;;3.25;2.30;;;;;;;22.14;39.06;94978.63;5025972;28;20766;-84
2022/05/21 03:59:49;;;;;;;3.28;2.22;;;;;;;22.88;38.29;94971.53;5019999;28;20266;-85
2022/05/21 04:02:17;;;;;;;3.85;2.53;;;;;;;23.39;37.42;94969.00;5018054;28;20205;-85
2022/05/21 04:04:44;;;;;;;5.50;2.58;;;;;;;23.42;37.09;94983.22;5031141;28;20207;-85
2022/05/21 04:07:11;;;;;;;4.97;2.50;;;;;;;23.10;37.73;94989.63;5029787;28;20200;-85
2022/05/21 04:09:38;;;;;;;3.80;2.40;;;;;;;23.01;37.83;94989.28;5031304;28;20282;-86
2022/05/21 04:12:07;;;;;;;5.97;3.05;;;;;;;24.33;35.93;94981.16;5017948;28;20216;-85
2022/05/21 04:14:34;;;;;;;3.53;2.47;;;;;;;23.87;35.69;94975.91;5021094;28;20233;-85
2022/05/21 04:17:04;;;;;;;3.67;2.20;;;;;;;23.71;36.95;94987.47;5026480;28;20217;-84
2022/05/21 04:19:31;;;;;;;5.05;2.20;;;;;;;23.99;36.73;94984.53;5019565;28;20232;-83
2022/05/21 04:21:58;;;;;;;4.47;2.90;;;;;;;24.96;34.67;94987.38;5024393;28;20228;-81
2022/05/21 04:24:25;;;;;;;8.25;2.45;;;;;;;25.23;34.67;94973.63;5010577;28;20228;-83
2022/05/21 04:26:52;;;;;;;3.95;2.55;;;;;;;25.23;33.75;94982.75;5028010;28;20213;-83
2022/05/21 04:29:21;;;;;;;6.00;2.42;;;;;;;25.37;33.85;94982.59;5030333;28;20223;-84
2022/05/21 04:31:47;;;;;;;4.65;2.55;;;;;;;25.01;34.33;94981.41;5017539;28;20204;-83
2022/05/21 04:34:15;;;;;;;2.40;2.20;;;;;;;26.14;33.37;94977.22;5018811;28;20205;-82
2022/05/21 04:36:42;;;;;;;2.42;2.05;;;;;;;26.29;32.61;94977.81;5023619;28;20219;-85
2022/05/21 04:39:08;;;;;;;4.40;2.35;;;;;;;26.34;31.74;94982.13;5032172;28;20211;-84
2022/05/21 04:41:35;;;;;;;4.38;2.58;;;;;;;25.03;33.46;94978.97;5030526;28;20232;-84
2022/05/21 04:44:03;;;;;;;6.25;2.78;;;;;;;25.84;33.13;94982.81;5040608;28;20203;-86
2022/05/21 04:46:32;;;;;;;5.82;3.00;;;;;;;25.12;33.79;94977.31;5031386;28;20240;-84
2022/05/21 04:48:59;;;;;;;4.82;3.20;;;;;;;25.42;33.22;94979.34;5018355;28;20288;-84
2022/05/21 04:51:26;;;;;;;5.80;2.80;;;;;;;25.74;33.14;94972.63;5023940;28;20208;-86
2022/05/21 04:53:53;;;;;;;6.53;3.42;;;;;;;25.29;33.45;94983.84;5022836;28;20237;-83
2022/05/21 04:56:21;;;;;;;6.65;3.03;;;;;;;26.20;32.67;94981.09;5020765;28;20704;-83
2022/05/21 04:58:47;;;;;;;6.97;3.25;;;;;;;26.33;32.17;94975.00;5017019;28;20225;-87
2022/05/21 05:01:14;;;;;;;4.65;3.30;;;;;;;26.35;31.93;94987.28;5023808;28;20237;-85
2022/05/21 05:03:43;;;;;;;13.10;4.32;;;;;;;25.79;33.25;94986.06;5023302;28;20242;-85
2022/05/21 05:06:10;;;;;;;6.72;3.92;;;;;;;26.98;31.85;94978.31;5019290;28;20544;-81
2022/05/21 05:08:37;;;;;;;6.82;3.83;;;;;;;27.54;31.16;94984.78;5030002;28;20204;-85
2022/05/21 05:11:04;;;;;;;7.35;3.53;;;;;;;28.40;30.18;94978.19;5029448;28;20304;-84
2022/05/21 05:13:31;;;;;;;6.07;3.72;;;;;;;28.33;29.51;94978.34;5016757;28;20301;-80
2022/05/21 05:15:58;;;;;;;6.97;3.83;;;;;;;29.12;28.44;94972.41;5027471;28;20216;-84
2022/05/21 05:18:27;;;;;;;7.93;3.65;;;;;;;30.32;27.34;94968.22;5029882;28;20211;-84
2022/05/21 05:20:55;;;;;;;12.95;3.90;;;;;;;30.13;26.79;94972.00;5022303;28;20284;-84
2022/05/21 05:23:22;;;;;;;7.50;3.53;;;;;;;29.80;27.34;94976.94;5010104;28;20312;-86
2022/05/21 05:25:49;;;;;;;8.98;3.42;;;;;;;29.02;27.64;94976.28;5015206;28;20215;-85
2022/05/21 05:28:18;;;;;;;5.05;3.13;;;;;;;29.99;27.25;94968.41;5029363;28;20216;-83
2022/05/21 05:30:46;;;;;;;5.78;3.47;;;;;;;29.06;27.24;94968.59;5020045;28;20205;-84
2022/05/21 05:33:14;;;;;;;11.10;3.90;;;;;;;28.85;27.45;94967.91;5023438;28;20685;-83
2022/05/21 05:35:40;;;;;;;7.75;3.90;;;;;;;29.73;26.29;94960.38;5019049;28;20211;-84
2022/05/21 05:38:11;;;;;;;11.02;3.55;;;;;;;29.00;27.10;94960.75;5030041;28;20204;-83
2022/05/21 05:40:41;;;;;;;5.50;3.10;;;;;;;29.01;27.28;94961.53;5029270;28;20232;-86
2022/05/21 05:43:08;;;;;;;7.00;3.72;;;;;;;30.30;26.05;94960.25;5032218;28;20232;-87
2022/05/21 05:45:35;;;;;;;5.13;3.22;;;;;;;28.28;28.43;94960.94;5047749;28;20305;-84
2022/05/21 05:48:02;;;;;;;6.65;2.97;;;;;;;28.68;27.47;94960.78;5034352;28;20213;-84
2022/05/21 05:50:29;;;;;;;8.25;3.30;;;;;;;29.20;26.54;94951.47;5022728;28;20566;-82
2022/05/21 05:53:01;;;;;;;7.18;3.30;;;;;;;30.58;25.78;94943.84;5027532;28;20197;-88
2022/05/21 05:55:29;;;;;;;5.97;2.90;;;;;;;29.78;26.33;94951.47;5030712;28;20216;-83
2022/05/21 05:57:56;;;;;;;6.13;3.13;;;;;;;29.18;26.98;94948.34;5034670;28;20266;-84
2022/05/21 06:00:22;;;;;;;7.13;2.80;;;;;;;29.62;26.09;94943.94;5033901;28;20235;-86
2022/05/21 06:03:02;;;;;;;6.90;2.92;;;;;;;30.59;25.83;94931.41;5022366;28;20201;-81
2022/05/21 06:05:32;;;;;;;5.68;2.75;;;;;;;31.36;24.77;94933.56;5029988;28;20297;-84
2022/05/21 06:08:01;;;;;;;7.25;3.00;;;;;;;31.16;23.99;94929.50;5021950;28;20201;-82
2022/05/21 06:10:32;;;;;;;6.72;2.95;;;;;;;29.48;25.59;94942.34;5028596;28;20255;-81
2022/05/21 06:12:59;;;;;;;3.88;2.50;;;;;;;31.22;24.45;94924.88;5031948;28;20635;-81
2022/05/21 06:15:27;;;;;;;7.78;3.00;;;;;;;30.48;24.77;94922.56;5017123;28;20209;-81
2022/05/21 06:17:55;;;;;;;4.47;2.53;;;;;;;30.44;24.77;94919.09;5034519;28;20695;-84
2022/05/21 06:20:24;;;;;;;3.60;2.33;;;;;;;30.84;25.79;94908.97;5029848;28;20841;-82
2022/05/21 06:22:51;;;;;;;3.78;2.55;;;;;;;29.46;25.62;94925.25;5023814;28;20221;-77
2022/05/21 06:25:21;;;;;;;6.70;2.60;;;;;;;28.77;26.70;94913.53;5018544;28;20216;-75
2022/05/21 06:27:51;;;;;;;5.05;2.20;;;;;;;29.75;25.21;94918.84;5032801;28;20645;-77
2022/05/21 06:30:20;;;;;;;3.30;2.10;;;;;;;30.08;24.46;94914.63;5032754;28;20223;-78
2022/05/21 06:32:47;;;;;;;3.33;1.92;;;;;;;29.93;24.94;94919.09;5032617;28;20617;-82
2022/05/21 06:35:15;;;;;;;4.95;2.50;;;;;;;30.79;23.48;94900.38;5024785;28;20225;-81
2022/05/21 06:37:43;;;;;;;4.00;2.17;;;;;;;30.84;23.96;94891.41;5032486;28;20204;-80
2022/05/21 06:40:12;;;;;;;4.53;2.60;;;;;;;29.80;24.69;94899.50;5032869;28;20215;-78
2022/05/21 06:42:40;;;;;;;2.97;2.15;;;;;;;28.80;25.51;94901.53;5019543;28;20205;-79
2022/05/21 06:45:10;;;;;;;5.90;1.90;;;;;;;30.58;23.62;94885.88;5043502;28;20206;-80
2022/05/21 06:47:37;;;;;;;8.13;2.25;;;;;;;30.60;23.43;94877.03;5030902;28;20246;-79
2022/05/21 06:50:06;;;;;;;2.58;1.80;;;;;;;29.56;24.42;94890.66;5031963;28;20205;-83
2022/05/21 06:52:35;;;;;;;5.78;2.00;;;;;;;30.14;23.46;94879.31;5031977;28;20201;-78
2022/05/21 06:55:01;;;;;;;3.92;2.03;;;;;;;30.53;24.46;94866.06;5029909;28;20239;-78
2022/05/21 06:57:28;;;;;;;3.50;1.80;;;;;;;29.66;24.75;94872.78;5026332;28;20224;-78
2022/05/21 06:59:56;;;;;;;2.58;1.83;;;;;;;29.69;24.68;94866.31;5029898;28;20196;-85
2022/05/21 07:02:24;;;;;;;2.80;2.08;;;;;;;29.04;25.14;94876.19;5031264;28;20330;-81
2022/05/21 07:07:43;;;;;;;5.60;1.92;;;;;;;28.65;26.59;94872.41;5030984;28;20602;-82
2022/05/21 07:10:18;;;;;;;3.67;2.10;;;;;;;29.59;26.03;94866.63;5032029;28;20574;-88
2022/05/21 07:12:45;;;;;;;4.75;2.20;;;;;;;30.45;25.15;94854.34;5031300;28;20220;-81
2022/05/21 07:15:13;;;;;;;5.45;2.40;;;;;;;29.57;25.56;94869.88;5018627;28;20217;-81
2022/05/21 07:17:42;;;;;;;4.80;2.47;;;;;;;29.45;25.96;94862.25;5033893;28;20208;-83
2022/05/21 07:20:13;;;;;;;4.78;2.25;;;;;;;28.04;27.77;94864.75;5019662;28;20307;-84
2022/05/21 07:22:42;;;;;;;3.90;1.80;;;;;;;29.04;26.91;94853.88;5032012;28;20652;-80
2022/05/21 07:25:10;;;;;;;4.78;2.08;;;;;;;29.17;25.56;94851.88;5030715;28;20753;-82
2022/05/21 07:27:37;;;;;;;3.10;2.33;;;;;;;28.74;27.05;94853.03;5032241;28;20221;-90
2022/05/21 07:30:04;;;;;;;5.68;2.33;;;;;;;29.18;27.04;94842.28;5018311;28;20213;-81
2022/05/21 07:32:31;;;;;;;3.45;2.30;;;;;;;29.74;26.05;94827.88;5023475;28;20212;-82
2022/05/21 07:35:00;;;;;;;5.85;2.25;;;;;;;29.80;25.49;94832.44;5031887;28;20231;-83
2022/05/21 07:37:28;;;;;;;6.63;2.90;;;;;;;27.92;28.70;94843.16;5020631;28;20519;-84
2022/05/21 07:39:55;;;;;;;5.70;2.13;;;;;;;27.91;28.52;94833.25;5030013;28;20212;-83
2022/05/21 07:42:22;;;;;;;6.30;2.47;;;;;;;26.92;29.33;94844.50;5032262;28;20236;-78
2022/05/21 07:44:49;;;;;;;4.47;2.40;;;;;;;26.66;30.26;94843.41;5044128;28;20208;-85
2022/05/21 07:47:16;;;;;;;4.50;2.58;;;;;;;26.21;30.37;94837.47;5031014;28;20228;-83
2022/05/21 07:49:45;;;;;;;4.93;2.13;;;;;;;27.19;29.22;94833.25;5032080;28;20197;-82
2022/05/21 07:52:13;;;;;;;4.93;2.70;;;;;;;28.05;28.41;94830.09;5031858;28;20204;-78
2022/05/21 07:54:40;;;;;;;6.03;2.70;;;;;;;28.14;27.81;94838.66;5031531;28;20224;-84
2022/05/21 07:57:07;;;;;;;4.95;2.40;;;;;;;28.79;28.08;94827.44;5033349;28;20213;-84
2022/05/21 07:59:33;;;;;;;4.97;2.65;;;;;;;27.77;27.96;94830.78;5021233;28;20201;-82
2022/05/21 08:02:01;;;;;;;4.22;2.40;;;;;;;28.29;27.80;94828.72;5018796;28;20232;-83
2022/05/21 08:04:28;;;;;;;4.93;2.58;;;;;;;28.80;27.70;94817.84;5031899;28;20220;-82
2022/05/21 08:06:54;;;;;;;5.63;2.50;;;;;;;28.90;27.32;94816.00;5031294;28;20227;-81
2022/05/21 08:09:23;;;;;;;6.60;3.30;;;;;;;28.23;28.31;94813.78;5031977;28;20204;-79
2022/05/21 08:11:50;;;;;;;7.18;3.17;;;;;;;28.00;28.50;94805.56;5018182;28;20247;-83
2022/05/21 08:14:18;;;;;;;7.68;2.70;;;;;;;27.91;28.99;94802.59;5031697;28;20234;-85
2022/05/21 08:16:45;;;;;;;4.70;2.55;;;;;;;27.59;29.33;94798.59;5031389;28;20246;-83
2022/05/21 08:19:12;;;;;;;6.63;2.80;;;;;;;27.79;30.58;94790.16;5023786;28;20220;-84
2022/05/21 08:21:39;;;;;;;5.72;2.85;;;;;;;27.25;31.53;94789.78;5025425;28;20642;-84
2022/05/21 08:26:59;;;;;;;6.63;3.00;;;;;;;26.47;32.22;94791.38;5027023;28;20224;-83
2022/05/21 08:29:27;;;;;;;9.50;2.72;;;;;;;26.17;32.00;94789.50;5032017;28;20290;-81
2022/05/21 08:31:54;;;;;;;4.65;2.70;;;;;;;26.62;31.01;94789.91;5032202;28;20208;-84
2022/05/21 08:34:21;;;;;;;5.78;2.83;;;;;;;27.02;31.73;94793.47;5031902;28;20220;-84
2022/05/21 08:36:48;;;;;;;8.02;3.58;;;;;;;27.22;30.35;94790.66;5031014;28;20285;-83
2022/05/21 08:39:15;;;;;;;6.38;2.65;;;;;;;27.67;30.73;94787.28;5031037;28;20224;-78
2022/05/21 08:41:46;;;;;;;6.35;2.72;;;;;;;26.82;32.06;94790.66;5025306;28;20236;-81
2022/05/21 08:44:20;;;;;;;5.63;2.83;;;;;;;26.42;32.24;94800.19;5024072;28;20251;-83
2022/05/21 08:47:01;;;;;;;5.45;2.78;;;;;;;26.22;33.85;94791.03;5030447;28;20232;-79
2022/05/21 08:49:33;;;;;;;5.60;2.92;;;;;;;26.91;33.36;94787.34;5014658;28;20197;-81
2022/05/21 08:52:08;;;;;;;8.88;3.47;;;;;;;26.68;33.21;94779.03;5022089;28;20604;-79
2022/05/21 08:54:40;;;;;;;7.68;2.85;;;;;;;26.38;32.72;94788.34;5017923;28;20234;-80
2022/05/21 08:57:12;;;;;;;10.20;3.75;;;;;;;25.48;34.97;94785.47;5028684;28;20216;-81
2022/05/21 08:59:46;;;;;;;6.68;3.20;;;;;;;26.49;32.26;94777.84;5018749;28;20193;-89
2022/05/21 09:02:16;;;;;;;4.57;2.88;;;;;;;27.03;32.40;94772.81;5030433;28;20243;-80
2022/05/21 09:04:44;;;;;;;5.60;2.90;;;;;;;26.19;32.72;94782.34;5023906;28;20598;-84
2022/05/21 09:07:19;;;;;;;8.38;3.20;;;;;;;26.72;32.94;94775.00;5026091;28;20211;-82
2022/05/21 09:10:03;;;;;;;7.25;3.13;;;;;;;26.44;34.77;94770.78;5031104;28;20192;-83
2022/05/21 09:12:41;;;;;;;8.57;3.50;;;;;;;26.75;33.74;94768.59;5017912;28;20256;-82
2022/05/21 09:16:54;;;;;;;7.43;3.33;;;;;;;27.17;31.68;94771.72;5017939;28;20200;-83
2022/05/21 09:18:01;;;;;;;5.40;3.20;;;;;;;27.61;30.91;94763.97;5020694;28;20715;-84
2022/05/21 09:20:33;;;;;;;5.63;3.22;;;;;;;27.37;31.33;94768.84;5027817;28;20212;-81
2022/05/21 09:23:02;;;;;;;7.10;2.83;;;;;;;27.42;30.39;94769.16;5030944;28;20221;-81
2022/05/21 09:25:29;;;;;;;3.88;2.60;;;;;;;27.37;31.52;94775.22;5025868;28;20681;-84
2022/05/21 09:28:04;;;;;;;4.50;2.80;;;;;;;27.29;29.08;94768.25;5023410;28;20689;-84
2022/05/21 09:30:35;;;;;;;5.80;2.58;;;;;;;27.70;28.65;94764.94;5031170;28;20196;-81
2022/05/21 09:33:20;;;;;;;5.25;2.63;;;;;;;27.41;29.58;94767.56;5016987;28;20225;-84
2022/05/21 09:35:53;;;;;;;3.90;2.47;;;;;;;27.47;27.77;94763.03;5021010;28;20198;-83
2022/05/21 09:38:24;;;;;;;7.28;2.40;;;;;;;27.66;27.85;94752.31;5029362;28;20251;-81
2022/05/21 09:41:03;;;;;;;4.30;2.42;;;;;;;27.95;29.55;94747.59;5030505;28;20192;-82
2022/05/21 09:46:22;;;;;;;6.07;2.47;;;;;;;27.84;28.61;94747.09;5046506;28;20231;-80
2022/05/21 09:48:51;;;;;;;5.00;2.47;;;;;;;28.00;28.64;94738.72;5029765;28;20277;-84
2022/05/21 09:51:24;;;;;;;3.55;2.05;;;;;;;27.87;27.89;94737.88;5029512;28;20224;-80
2022/05/21 09:53:52;;;;;;;4.07;2.20;;;;;;;27.85;26.94;94743.88;5030385;28;20256;-80
2022/05/21 09:56:21;;;;;;;4.95;2.30;;;;;;;27.83;29.24;94751.09;5030435;28;20219;-81
2022/05/21 09:58:49;;;;;;;8.25;2.42;;;;;;;27.45;28.16;94736.88;5030155;28;20208;-76
2022/05/21 10:01:36;;;;;;;2.55;1.77;;;;;;;27.44;27.38;94747.22;5016928;28;20296;-80
2022/05/21 10:04:13;;;;;;;6.85;1.70;;;;;;;27.64;27.16;94733.25;5017334;28;20228;-84
2022/05/21 10:06:43;;;;;;;3.83;1.90;;;;;;;27.79;27.38;94722.53;5020313;28;20204;-81
2022/05/21 10:12:04;;;;;;;4.85;1.92;;;;;;;28.03;27.46;94717.53;5030194;28;20208;-78
2022/05/21 10:14:35;;;;;;;2.95;2.00;;;;;;;28.38;27.44;94713.06;5030853;28;20304;-83
2022/05/21 10:17:08;;;;;;;2.67;1.80;;;;;;;28.28;28.69;94707.34;5017190;28;20229;-82
2022/05/21 10:19:41;;;;;;;3.20;1.70;;;;;;;27.83;27.37;94706.53;5021021;28;20267;-84
2022/05/21 10:22:17;;;;;;;2.17;1.58;;;;;;;27.38;28.02;94701.66;5027364;28;20219;-82
2022/05/21 10:25:00;;;;;;;4.40;1.85;;;;;;;28.08;26.34;94694.75;5018604;28;20209;-78
2022/05/21 10:27:46;;;;;;;2.30;1.55;;;;;;;28.50;27.42;94693.59;5018455;28;20224;-81
2022/05/21 10:30:18;;;;;;;4.95;1.80;;;;;;;28.78;25.58;94686.41;5017613;28;20977;-81
2022/05/21 10:33:14;;;;;;;5.00;1.70;;;;;;;29.40;24.63;94681.34;5033766;28;20559;-82
2022/05/21 10:35:56;;;;;;;1.98;1.48;;;;;;;29.95;22.19;94671.50;5023574;28;20193;-84
2022/05/21 10:38:40;;;;;;;2.35;1.48;;;;;;;29.69;24.35;94681.19;5033121;28;20558;-82
2022/05/21 10:41:15;;;;;;;2.88;1.58;;;;;;;28.86;25.37;94687.78;5032108;28;20189;-79
2022/05/21 10:44:00;;;;;;;3.47;2.13;;;;;;;28.48;25.40;94684.88;5040054;28;20190;-81
2022/05/21 10:46:36;;;;;;;2.30;1.40;;;;;;;28.47;26.94;94686.09;5034660;28;20235;-89
2022/05/21 10:49:38;;;;;;;2.28;1.65;;;;;;;28.56;27.20;94668.75;5021123;28;20616;-85
2022/05/21 10:52:15;;;;;;;3.42;1.50;;;;;;;28.63;25.48;94668.53;5028265;28;20278;-85
2022/05/21 10:55:02;;;;;;;3.85;1.60;;;;;;;28.59;26.06;94656.69;5032151;28;20204;-86
2022/05/21 10:57:46;;;;;;;2.22;1.77;;;;;;;29.26;25.49;94654.63;5032264;28;20191;-88
2022/05/21 11:00:18;;;;;;;3.05;1.85;;;;;;;29.24;26.40;94645.19;5026337;28;20207;-83
2022/05/21 11:03:25;;;;;;;2.58;1.38;;;;;;;28.84;26.78;94651.19;5030309;28;20232;-80
2022/05/21 11:06:24;;;;;;;2.88;1.48;;;;;;;29.04;25.08;94641.81;5026000;28;20283;-76
2022/05/21 11:09:02;;;;;;;4.20;1.80;;;;;;;28.97;24.81;94626.09;5024949;28;20232;-81
2022/05/21 11:11:43;;;;;;;2.47;1.25;;;;;;;28.82;24.71;94639.72;5030196;28;20193;-77
2022/05/21 11:14:16;;;;;;;2.60;1.70;;;;;;;29.37;23.92;94625.63;5030031;28;20200;-80
2022/05/21 11:16:46;;;;;;;2.67;1.30;;;;;;;29.89;24.78;94609.09;5017120;28;20221;-80
2022/05/21 11:19:20;;;;;;;3.05;1.45;;;;;;;30.21;23.56;94593.97;5018534;28;20200;-81
2022/05/21 11:21:54;;;;;;;2.35;1.50;;;;;;;30.23;23.95;94591.50;5025437;28;20239;-81
2022/05/21 11:24:27;;;;;;;2.85;1.42;;;;;;;30.46;23.57;94592.28;5031933;28;20681;-86
2022/05/21 11:26:59;;;;;;;1.52;1.38;;;;;;;30.23;24.15;94585.91;5030309;28;20201;-82
2022/05/21 11:29:36;;;;;;;1.70;1.30;;;;;;;30.19;24.92;94579.69;5018884;28;20225;-87
2022/05/21 11:37:42;;;;;;;1.55;1.05;;;;;;;29.67;24.79;94589.47;5024375;28;20690;-87
2022/05/21 11:40:30;;;;;;;2.17;1.58;;;;;;;29.42;25.65;94578.38;5031054;28;20207;-88
2022/05/21 11:42:57;;;;;;;3.70;1.60;;;;;;;29.86;25.61;94578.47;5014889;28;20225;-89
2022/05/21 11:45:26;;;;;;;2.55;1.30;;;;;;;29.73;23.75;94569.38;5018872;28;20247;-87
2022/05/21 11:48:13;;;;;;;2.47;1.27;;;;;;;29.65;23.13;94575.22;5015976;28;20570;-84
2022/05/21 11:50:41;;;;;;;1.55;1.20;;;;;;;30.07;23.79;94563.75;5030950;28;20228;-89
2022/05/21 11:53:25;;;;;;;2.08;1.67;;;;;;;30.43;23.64;94570.81;5009471;28;20298;-88
2022/05/21 11:56:04;;;;;;;5.68;1.70;;;;;;;30.13;23.43;94559.13;5020046;28;20725;-86
2022/05/21 11:59:17;;;;;;;2.55;1.40;;;;;;;29.97;24.02;94562.91;5028296;28;20220;-79
2022/05/21 12:02:21;;;;;;;4.95;1.73;;;;;;;29.37;25.13;94559.41;5025526;28;20225;-79
2022/05/21 12:04:55;;;;;;;2.63;1.42;;;;;;;29.20;25.19;94555.19;5023327;28;20185;-80
2022/05/21 12:07:51;;;;;;;1.98;1.40;;;;;;;29.24;25.62;94550.28;5029432;28;20702;-81
2022/05/21 12:10:30;;;;;;;2.05;1.50;;;;;;;29.30;25.25;94548.47;5015865;28;20201;-82
2022/05/21 12:13:11;;;;;;;3.63;1.50;;;;;;;29.04;25.89;94553.31;5029853;28;20279;-73
2022/05/21 12:15:41;;;;;;;2.08;1.58;;;;;;;28.76;26.23;94555.00;5026902;28;20323;-79